createdAt,value
2022-10-18T00:01:06.823Z,96.82
2022-10-18T00:03:44.420Z,97.13
2022-10-18T00:06:12.488Z,97.14
2022-10-18T00:08:40.694Z,97.06
2022-10-18T00:11:08.997Z,97.02
2022-10-18T00:13:37.744Z,96.88
2022-10-18T00:16:10.848Z,97.19
2022-10-18T00:18:38.879Z,97.36
2022-10-18T00:21:17.669Z,97.33
2022-10-18T00:23:46.777Z,97.15
2022-10-18T00:26:17.665Z,97.42
2022-10-18T00:28:46.920Z,97.34
2022-10-18T00:31:17.510Z,97.18
2022-10-18T00:33:47.360Z,97.09
2022-10-18T00:36:15.707Z,96.77
2022-10-18T00:38:44.500Z,97.11
2022-10-18T00:41:16.069Z,96.96
2022-10-18T00:43:58.018Z,97.17
2022-10-18T00:46:31.086Z,97.19
2022-10-18T00:49:02.541Z,97.52
2022-10-18T00:51:39.959Z,97.53
2022-10-18T00:54:07.942Z,97.57
2022-10-18T00:56:36.069Z,97.59
2022-10-18T00:59:04.351Z,97.27
2022-10-18T01:01:31.992Z,97.06
2022-10-18T01:03:59.929Z,96.63
2022-10-18T01:06:29.345Z,96.44
2022-10-18T01:09:18.357Z,96.48
2022-10-18T01:12:12.552Z,96.11
2022-10-18T01:14:52.306Z,96.11
2022-10-18T01:17:28.922Z,95.61
2022-10-18T01:20:12.795Z,95.24
2022-10-18T01:23:04.523Z,94.79
2022-10-18T01:25:46.063Z,94.90
2022-10-18T01:28:28.267Z,95.03
2022-10-18T01:31:06.109Z,94.84
2022-10-18T01:33:51.162Z,94.28
2022-10-18T01:36:28.535Z,94.05
2022-10-18T01:39:01.354Z,94.19
2022-10-18T01:41:30.161Z,94.19
2022-10-18T01:44:02.118Z,94.06
2022-10-18T01:46:30.999Z,93.62
2022-10-18T01:48:59.593Z,93.89
2022-10-18T01:51:29.672Z,93.99
2022-10-18T01:53:57.878Z,94.03
2022-10-18T01:56:31.421Z,94.17
2022-10-18T01:59:19.990Z,93.80
2022-10-18T02:02:35.213Z,93.72
2022-10-18T02:08:32.922Z,93.83
2022-10-18T02:11:02.771Z,93.98
2022-10-18T02:13:45.407Z,94.13
2022-10-18T02:16:19.672Z,94.03
2022-10-18T02:18:55.915Z,94.06
2022-10-18T02:21:25.959Z,94.22
2022-10-18T02:23:55.154Z,94.22
2022-10-18T02:26:23.289Z,94.31
2022-10-18T02:28:51.317Z,94.30
2022-10-18T02:31:29.927Z,94.23
2022-10-18T02:34:20.468Z,94.56
2022-10-18T02:36:57.423Z,94.73
2022-10-18T02:39:31.414Z,95.19
2022-10-18T02:41:59.773Z,95.08
2022-10-18T02:44:27.668Z,95.04
2022-10-18T02:46:55.522Z,95.16
2022-10-18T02:49:23.253Z,95.25
2022-10-18T02:51:51.082Z,95.48
2022-10-18T02:54:18.654Z,95.82
2022-10-18T02:56:46.382Z,95.84
2022-10-18T02:59:13.982Z,95.75
2022-10-18T03:01:41.769Z,95.80
2022-10-18T03:04:09.521Z,95.59
2022-10-18T03:06:37.399Z,95.50
2022-10-18T03:09:06.489Z,95.54
2022-10-18T03:11:34.453Z,95.80
2022-10-18T03:14:02.062Z,95.75
2022-10-18T03:16:30.057Z,95.77
2022-10-18T03:18:57.631Z,95.78
2022-10-18T03:21:25.405Z,95.90
2022-10-18T03:23:53.021Z,95.98
2022-10-18T03:26:21.628Z,96.22
2022-10-18T03:28:49.295Z,96.04
2022-10-18T03:31:17.509Z,96.10
2022-10-18T03:33:45.260Z,96.16
2022-10-18T03:36:13.351Z,96.09
2022-10-18T03:38:40.943Z,96.08
2022-10-18T03:41:09.020Z,96.09
2022-10-18T03:43:36.690Z,96.06
2022-10-18T03:46:04.735Z,96.19
2022-10-18T03:48:32.607Z,96.30
2022-10-18T03:51:00.363Z,96.52
2022-10-18T03:53:27.910Z,96.66
2022-10-18T03:55:56.997Z,96.64
2022-10-18T03:58:24.893Z,96.80
2022-10-18T04:00:54.366Z,97.07
2022-10-18T04:03:23.417Z,96.96
2022-10-18T04:05:51.635Z,97.11
2022-10-18T04:08:19.754Z,96.74
2022-10-18T04:10:47.737Z,96.42
2022-10-18T04:13:15.695Z,96.16
2022-10-18T04:15:44.049Z,96.04
2022-10-18T04:18:11.674Z,96.20
2022-10-18T04:20:39.531Z,96.05
2022-10-18T04:23:07.064Z,95.98
2022-10-18T04:25:34.929Z,96.24
2022-10-18T04:28:04.688Z,96.00
2022-10-18T04:30:32.516Z,95.67
2022-10-18T04:33:00.202Z,95.79
2022-10-18T04:35:28.443Z,95.90
2022-10-18T04:37:56.114Z,95.82
2022-10-18T04:40:23.856Z,95.86
2022-10-18T04:42:51.375Z,95.90
2022-10-18T04:45:19.129Z,96.09
2022-10-18T04:47:46.698Z,96.26
2022-10-18T04:50:14.411Z,96.35
2022-10-18T04:52:42.614Z,96.52
2022-10-18T04:55:10.547Z,96.52
2022-10-18T04:57:38.156Z,96.83
2022-10-18T05:00:06.603Z,96.93
2022-10-18T05:02:34.444Z,96.87
2022-10-18T05:05:02.481Z,97.04
2022-10-18T05:07:30.446Z,97.25
2022-10-18T05:09:58.302Z,97.26
2022-10-18T05:12:25.838Z,97.32
2022-10-18T05:14:56.264Z,97.28
2022-10-18T05:17:23.953Z,97.48
2022-10-18T05:19:51.782Z,97.48
2022-10-18T05:22:19.407Z,97.70
2022-10-18T05:24:47.236Z,97.63
2022-10-18T05:27:14.852Z,97.51
2022-10-18T05:29:42.699Z,97.46
2022-10-18T05:32:10.242Z,97.07
2022-10-18T05:34:38.091Z,97.08
2022-10-18T05:37:06.704Z,96.75
2022-10-18T05:39:34.521Z,96.55
2022-10-18T05:42:02.504Z,96.29
2022-10-18T05:44:30.396Z,96.17
2022-10-18T05:46:58.129Z,95.84
2022-10-18T05:49:25.962Z,96.07
2022-10-18T05:51:53.632Z,96.09
2022-10-18T05:54:21.537Z,96.02
2022-10-18T05:56:49.346Z,95.42
2022-10-18T05:59:17.142Z,94.94
2022-10-18T06:01:45.544Z,94.50
2022-10-18T06:04:13.394Z,93.77
2022-10-18T06:06:40.968Z,92.69
2022-10-18T06:09:08.984Z,91.51
2022-10-18T06:11:37.384Z,90.78
2022-10-18T06:14:05.638Z,89.91
2022-10-18T06:16:33.418Z,89.36
2022-10-18T06:19:01.298Z,88.69
2022-10-18T06:21:28.962Z,86.89
2022-10-18T06:23:58.923Z,84.93
2022-10-18T06:26:27.846Z,83.80
2022-10-18T06:28:55.813Z,82.53
2022-10-18T06:31:23.550Z,81.38
2022-10-18T06:33:51.429Z,79.65
2022-10-18T06:36:22.264Z,78.33
2022-10-18T06:38:50.818Z,77.78
2022-10-18T06:41:19.350Z,77.36
2022-10-18T06:43:51.273Z,76.13
2022-10-18T06:46:19.223Z,74.92
2022-10-18T06:48:47.308Z,74.43
2022-10-18T06:51:15.408Z,73.51
2022-10-18T06:53:53.442Z,72.82
2022-10-18T06:56:31.034Z,72.39
2022-10-18T07:01:32.484Z,71.05
2022-10-18T07:04:00.396Z,70.70
2022-10-18T07:06:28.179Z,69.69
2022-10-18T07:08:57.059Z,68.59
2022-10-18T07:11:26.842Z,68.61
2022-10-18T07:14:00.864Z,68.31
2022-10-18T07:16:29.045Z,67.81
2022-10-18T07:18:57.018Z,67.39
2022-10-18T07:21:26.174Z,67.08
2022-10-18T07:23:56.224Z,66.54
2022-10-18T07:26:29.678Z,66.00
2022-10-18T07:29:01.608Z,65.20
2022-10-18T07:31:30.149Z,64.50
2022-10-18T07:33:58.210Z,63.42
2022-10-18T07:36:26.257Z,62.80
2022-10-18T07:38:54.266Z,62.35
2022-10-18T07:41:22.458Z,61.69
2022-10-18T07:43:52.004Z,61.89
2022-10-18T07:46:21.880Z,61.83
2022-10-18T07:48:50.354Z,62.03
2022-10-18T07:51:19.946Z,61.80
2022-10-18T07:53:48.088Z,60.66
2022-10-18T07:56:21.032Z,59.28
2022-10-18T07:58:54.457Z,58.52
2022-10-18T08:01:24.648Z,56.74
2022-10-18T08:03:53.330Z,55.28
2022-10-18T08:06:22.879Z,52.72
2022-10-18T08:08:52.201Z,51.23
2022-10-18T08:11:25.141Z,50.18
2022-10-18T08:13:54.335Z,49.27
2022-10-18T08:16:24.931Z,48.67
2022-10-18T08:18:53.268Z,47.68
2022-10-18T08:21:21.791Z,47.17
2022-10-18T08:23:50.160Z,46.98
2022-10-18T08:26:20.951Z,47.14
2022-10-18T08:28:54.376Z,46.68
2022-10-18T08:31:31.546Z,46.71
2022-10-18T08:34:00.035Z,46.19
2022-10-18T08:36:27.760Z,46.47
2022-10-18T08:38:55.502Z,45.68
2022-10-18T08:41:38.487Z,45.66
2022-10-18T08:44:33.827Z,46.84
2022-10-18T08:47:05.637Z,47.29
2022-10-18T08:49:47.078Z,47.06
2022-10-18T08:52:53.631Z,46.61
2022-10-18T08:55:42.165Z,45.71
2022-10-18T08:58:23.355Z,44.82
2022-10-18T09:01:07.280Z,43.73
2022-10-18T09:04:05.917Z,42.22
2022-10-18T09:06:47.867Z,40.73
2022-10-18T09:09:18.497Z,39.41
2022-10-18T09:12:17.089Z,37.77
2022-10-18T09:15:13.856Z,36.59
2022-10-18T09:17:54.927Z,36.22
2022-10-18T09:20:27.685Z,36.45
2022-10-18T09:23:12.281Z,35.75
2022-10-18T09:25:56.176Z,35.44
2022-10-18T09:28:36.652Z,35.45
2022-10-18T09:31:16.740Z,36.07
2022-10-18T09:34:08.367Z,35.84
2022-10-18T09:36:38.664Z,35.75
2022-10-18T09:39:12.188Z,35.26
2022-10-18T09:42:19.393Z,36.00
2022-10-18T09:45:02.071Z,36.34
2022-10-18T09:47:46.082Z,35.78
2022-10-18T09:50:40.207Z,35.32
2022-10-18T09:53:15.950Z,34.26
2022-10-18T09:56:12.035Z,34.85
2022-10-18T09:58:46.469Z,36.18
2022-10-18T10:01:19.575Z,36.71
2022-10-18T10:03:47.281Z,36.59
2022-10-18T10:06:17.102Z,36.66
2022-10-18T10:08:50.115Z,37.79
2022-10-18T10:11:34.779Z,39.94
2022-10-18T10:14:30.284Z,41.63
2022-10-18T10:17:05.836Z,43.77
2022-10-18T10:19:37.726Z,44.89
2022-10-18T10:22:12.440Z,45.50
2022-10-18T10:24:55.346Z,46.07
2022-10-18T10:27:34.623Z,46.48
2022-10-18T10:30:07.027Z,47.03
2022-10-18T10:32:49.974Z,47.42
2022-10-18T10:35:54.368Z,46.97
2022-10-18T10:38:28.146Z,47.14
2022-10-18T10:40:56.798Z,46.44
2022-10-18T10:43:38.617Z,46.00
2022-10-18T10:46:09.477Z,46.21
2022-10-18T10:48:46.021Z,46.61
2022-10-18T10:51:16.329Z,46.79
2022-10-18T10:53:50.856Z,47.82
2022-10-18T10:56:30.591Z,48.31
2022-10-18T10:59:17.984Z,48.34
2022-10-18T11:01:49.730Z,48.77
2022-10-18T11:04:44.435Z,49.27
2022-10-18T11:07:33.706Z,49.31
2022-10-18T11:10:12.482Z,49.42
2022-10-18T11:12:46.330Z,49.13
2022-10-18T11:15:35.895Z,47.96
2022-10-18T11:18:22.155Z,47.88
2022-10-18T11:20:58.357Z,47.72
2022-10-18T11:23:32.407Z,47.64
2022-10-18T11:26:11.353Z,48.39
2022-10-18T11:29:08.888Z,48.36
2022-10-18T11:32:01.830Z,49.04
2022-10-18T11:34:47.434Z,48.87
2022-10-18T11:37:39.702Z,48.50
2022-10-18T11:40:32.288Z,49.05
2022-10-18T11:43:18.977Z,49.07
2022-10-18T11:46:04.647Z,49.14
2022-10-18T11:48:44.416Z,49.45
2022-10-18T11:51:38.700Z,49.61
2022-10-18T11:54:26.487Z,49.78
2022-10-18T11:57:12.300Z,50.38
2022-10-18T12:00:10.118Z,50.64
2022-10-18T12:03:00.657Z,50.75
2022-10-18T12:05:30.935Z,50.82
2022-10-18T12:08:20.127Z,51.08
2022-10-18T12:11:05.532Z,50.69
2022-10-18T12:13:57.786Z,50.37
2022-10-18T12:16:49.904Z,49.78
2022-10-18T12:19:27.041Z,49.28
2022-10-18T12:22:05.859Z,49.61
2022-10-18T12:24:35.579Z,49.13
2022-10-18T12:27:03.823Z,49.30
2022-10-18T12:29:47.972Z,49.39
2022-10-18T12:32:29.877Z,49.31
2022-10-18T12:35:18.204Z,49.74
2022-10-18T12:37:53.295Z,50.01
2022-10-18T12:40:26.094Z,49.91
2022-10-18T12:42:54.448Z,49.83
2022-10-18T12:45:27.753Z,49.82
2022-10-18T12:48:00.512Z,50.63
2022-10-18T12:50:35.910Z,50.71
2022-10-18T12:53:12.850Z,51.27
2022-10-18T12:58:22.317Z,51.77
2022-10-18T13:00:49.935Z,51.84
2022-10-18T13:03:18.063Z,52.59
2022-10-18T13:05:54.299Z,52.77
2022-10-18T13:08:35.237Z,53.29
2022-10-18T13:11:11.879Z,53.82
2022-10-18T13:14:00.236Z,53.85
2022-10-18T13:16:42.913Z,54.57
2022-10-18T13:19:23.729Z,54.68
2022-10-18T13:21:56.830Z,55.27
2022-10-18T13:24:30.459Z,55.25
2022-10-18T13:27:24.068Z,55.77
2022-10-18T13:30:03.058Z,56.33
2022-10-18T13:33:03.364Z,57.35
2022-10-18T13:35:48.216Z,57.92
2022-10-18T13:38:39.239Z,58.38
2022-10-18T13:41:11.056Z,58.75
2022-10-18T13:43:56.719Z,58.86
2022-10-18T13:46:44.502Z,59.04
2022-10-18T13:49:17.646Z,59.51
2022-10-18T13:52:13.446Z,59.72
2022-10-18T13:54:49.930Z,60.10
2022-10-18T13:57:29.710Z,60.07
2022-10-18T14:00:15.308Z,60.73
2022-10-18T14:03:51.431Z,61.04
2022-10-18T14:06:22.669Z,61.73
2022-10-18T14:08:57.703Z,62.27
2022-10-18T14:11:46.035Z,62.60
2022-10-18T14:14:26.742Z,63.04
2022-10-18T14:17:15.429Z,63.59
2022-10-18T14:19:52.254Z,63.77
2022-10-18T14:22:22.794Z,64.17
2022-10-18T14:24:58.695Z,64.18
2022-10-18T14:27:33.017Z,64.37
2022-10-18T14:30:18.666Z,64.66
2022-10-18T14:32:49.586Z,65.21
2022-10-18T14:35:32.713Z,65.57
2022-10-18T14:38:02.409Z,66.26
2022-10-18T14:40:40.859Z,66.60
2022-10-18T14:43:14.784Z,67.24
2022-10-18T14:45:43.351Z,68.00
2022-10-18T14:48:21.088Z,67.63
2022-10-18T14:50:59.385Z,67.74
2022-10-18T14:53:34.571Z,68.24
2022-10-18T14:56:07.364Z,68.58
2022-10-18T14:58:37.852Z,69.57
2022-10-18T15:01:06.020Z,70.54
2022-10-18T15:03:35.747Z,70.75
2022-10-18T15:06:05.841Z,71.18
2022-10-18T15:08:37.838Z,71.87
2022-10-18T15:11:10.496Z,72.21
2022-10-18T15:13:56.921Z,72.35
2022-10-18T15:16:29.219Z,73.56
2022-10-18T15:19:04.489Z,74.35
2022-10-18T15:21:32.922Z,74.78
2022-10-18T15:24:38.003Z,75.80
2022-10-18T15:27:23.960Z,75.87
2022-10-18T15:29:52.581Z,75.65
2022-10-18T15:32:29.858Z,76.19
2022-10-18T15:35:15.893Z,76.12
2022-10-18T15:37:48.532Z,76.62
2022-10-18T15:40:29.271Z,77.58
2022-10-18T15:42:59.674Z,78.19
2022-10-18T15:45:34.788Z,78.17
2022-10-18T15:48:12.957Z,78.64
2022-10-18T15:50:43.696Z,79.42
2022-10-18T15:53:37.194Z,80.37
2022-10-18T15:56:37.883Z,81.02
2022-10-18T15:59:21.028Z,82.09
2022-10-18T16:01:49.003Z,82.54
2022-10-18T16:04:25.755Z,83.72
2022-10-18T16:06:55.523Z,85.12
2022-10-18T16:09:25.372Z,85.58
2022-10-18T16:11:57.051Z,86.57
2022-10-18T16:14:26.529Z,87.68
2022-10-18T16:17:00.641Z,88.94
2022-10-18T16:19:29.047Z,90.86
2022-10-18T16:21:56.849Z,92.74
2022-10-18T16:24:24.635Z,93.98
2022-10-18T16:26:53.156Z,95.86
2022-10-18T16:29:28.757Z,97.62
2022-10-18T16:31:58.260Z,98.97
2022-10-18T16:34:27.380Z,99.80
2022-10-18T16:36:55.698Z,100.00
2022-10-18T16:39:24.080Z,100.00
2022-10-18T16:41:51.759Z,100.00
2022-10-18T16:44:19.656Z,100.00
2022-10-18T16:46:51.086Z,100.00
2022-10-18T16:49:26.023Z,100.00
2022-10-18T16:51:55.291Z,100.00
2022-10-18T16:54:23.660Z,100.00
2022-10-18T16:56:51.344Z,100.00
2022-10-18T16:59:29.107Z,100.00
2022-10-18T17:01:57.235Z,99.98
2022-10-18T17:04:25.121Z,99.96
2022-10-18T17:06:54.633Z,100.00
2022-10-18T17:09:22.443Z,100.00
2022-10-18T17:11:50.486Z,100.00
2022-10-18T17:14:18.212Z,100.00
2022-10-18T17:16:48.775Z,100.00
2022-10-18T17:19:20.778Z,100.00
2022-10-18T17:21:48.279Z,100.00
2022-10-18T17:24:16.065Z,100.00
2022-10-18T17:26:43.898Z,100.00
2022-10-18T17:29:11.730Z,100.00
2022-10-18T17:31:39.435Z,100.00
2022-10-18T17:34:07.535Z,100.00
2022-10-18T17:36:35.132Z,100.00
2022-10-18T17:39:03.901Z,100.00
2022-10-18T17:41:31.619Z,100.00
2022-10-18T17:43:59.412Z,100.00
2022-10-18T17:46:27.407Z,100.00
2022-10-18T17:48:55.177Z,100.00
2022-10-18T17:51:23.001Z,100.00
2022-10-18T17:53:50.879Z,100.00
2022-10-18T17:56:18.580Z,100.00
2022-10-18T17:58:50.351Z,100.00
2022-10-18T18:01:21.411Z,100.00
2022-10-18T18:03:49.530Z,100.00
2022-10-18T18:06:22.574Z,100.00
2022-10-18T18:08:50.853Z,100.00
2022-10-18T18:11:18.740Z,100.00
2022-10-18T18:13:46.601Z,100.00
2022-10-18T18:16:22.723Z,100.00
2022-10-18T18:18:53.454Z,100.00
2022-10-18T18:21:22.143Z,100.00
2022-10-18T18:23:51.084Z,100.00
2022-10-18T18:26:20.078Z,100.00
2022-10-18T18:28:48.750Z,100.00
2022-10-18T18:31:25.563Z,100.00
2022-10-18T18:33:55.559Z,100.00
2022-10-18T18:36:25.050Z,100.00
2022-10-18T18:38:56.999Z,100.00
2022-10-18T18:41:27.294Z,100.00
2022-10-18T18:43:56.823Z,100.00
2022-10-18T18:46:26.801Z,100.00
2022-10-18T18:48:56.378Z,100.00
2022-10-18T18:51:26.662Z,100.00
2022-10-18T18:53:54.680Z,100.00
2022-10-18T18:56:25.478Z,100.00
2022-10-18T18:58:54.411Z,100.00
2022-10-18T19:01:25.379Z,100.00
2022-10-18T19:03:55.981Z,100.00
2022-10-18T19:06:24.856Z,100.00
2022-10-18T19:08:54.584Z,100.00
2022-10-18T19:11:23.002Z,100.00
2022-10-18T19:13:50.836Z,100.00
2022-10-18T19:16:18.490Z,100.00
2022-10-18T19:18:56.064Z,100.00
2022-10-18T19:21:25.899Z,100.00
2022-10-18T19:23:56.108Z,100.00
2022-10-18T19:26:34.047Z,100.00
2022-10-18T19:29:13.421Z,100.00
2022-10-18T19:31:41.842Z,100.00
2022-10-18T19:34:11.684Z,100.00
2022-10-18T19:36:41.267Z,100.00
2022-10-18T19:39:29.513Z,100.00
2022-10-18T19:42:00.180Z,100.00
2022-10-18T19:44:31.085Z,100.00
2022-10-18T19:46:59.486Z,100.00
2022-10-18T19:49:28.695Z,100.00
2022-10-18T19:51:57.301Z,100.00
2022-10-18T19:54:26.831Z,100.00
2022-10-18T19:56:54.426Z,100.00
2022-10-18T19:59:22.881Z,100.00
2022-10-18T20:01:50.712Z,100.00
2022-10-18T20:04:18.640Z,100.00
2022-10-18T20:06:46.694Z,100.00
2022-10-18T20:09:19.330Z,100.00
2022-10-18T20:11:48.726Z,100.00
2022-10-18T20:14:16.457Z,100.00
2022-10-18T20:16:44.053Z,100.00
2022-10-18T20:19:12.071Z,100.00
2022-10-18T20:21:39.998Z,100.00
2022-10-18T20:24:09.502Z,100.00
2022-10-18T20:26:37.385Z,100.00
2022-10-18T20:29:05.859Z,100.00
2022-10-18T20:31:37.162Z,100.00
2022-10-18T20:34:07.904Z,100.00
2022-10-18T20:36:36.187Z,100.00
2022-10-18T20:39:04.905Z,100.00
2022-10-18T20:41:36.406Z,100.00
2022-10-18T20:44:12.127Z,100.00
2022-10-18T20:46:40.451Z,100.00
2022-10-18T20:49:10.917Z,100.00
2022-10-18T20:51:38.557Z,100.00
2022-10-18T20:54:07.947Z,100.00
2022-10-18T20:56:38.095Z,100.00
2022-10-18T20:59:09.483Z,100.00
2022-10-18T21:01:38.961Z,100.00
2022-10-18T21:04:09.287Z,100.00
2022-10-18T21:06:42.829Z,100.00
2022-10-18T21:09:18.874Z,100.00
2022-10-18T21:11:49.489Z,100.00
2022-10-18T21:14:19.778Z,100.00
2022-10-18T21:16:48.563Z,100.00
2022-10-18T21:19:24.259Z,100.00
2022-10-18T21:21:54.939Z,100.00
2022-10-18T21:24:24.272Z,100.00
2022-10-18T21:26:52.571Z,100.00
2022-10-18T21:29:22.636Z,100.00
2022-10-18T21:31:59.333Z,100.00
2022-10-18T21:34:27.495Z,100.00
2022-10-18T21:36:55.092Z,100.00
2022-10-18T21:41:57.043Z,100.00
2022-10-18T21:44:25.010Z,100.00
2022-10-18T21:46:52.705Z,100.00
2022-10-18T21:49:23.356Z,100.00
2022-10-18T21:51:51.094Z,100.00
2022-10-18T21:54:18.942Z,100.00
2022-10-18T21:56:46.631Z,100.00
2022-10-18T21:59:14.762Z,100.00
2022-10-18T22:01:44.589Z,100.00
2022-10-18T22:04:24.656Z,100.00
2022-10-18T22:06:52.453Z,100.00
2022-10-18T22:09:21.234Z,100.00
2022-10-18T22:11:51.588Z,100.00
2022-10-18T22:14:19.656Z,100.00
2022-10-18T22:16:47.269Z,100.00
2022-10-18T22:19:15.202Z,100.00
2022-10-18T22:21:43.046Z,100.00
2022-10-18T22:24:10.976Z,100.00
2022-10-18T22:26:42.300Z,100.00
2022-10-18T22:29:17.406Z,100.00
2022-10-18T22:31:50.660Z,100.00
2022-10-18T22:34:21.832Z,100.00
2022-10-18T22:36:50.200Z,100.00
2022-10-18T22:39:18.215Z,100.00
2022-10-18T22:41:46.609Z,100.00
2022-10-18T22:44:15.458Z,100.00
2022-10-18T22:46:43.247Z,100.00
2022-10-18T22:49:12.108Z,100.00
2022-10-18T22:51:40.389Z,100.00
2022-10-18T22:54:08.489Z,100.00
2022-10-18T22:56:36.089Z,100.00
2022-10-18T22:59:03.943Z,100.00
2022-10-18T23:01:31.499Z,100.00
2022-10-18T23:04:01.132Z,100.00
2022-10-18T23:06:31.741Z,100.00
2022-10-18T23:09:01.764Z,100.00
2022-10-18T23:11:29.637Z,100.00
2022-10-18T23:13:57.506Z,100.00
2022-10-18T23:16:25.367Z,100.00
2022-10-18T23:18:57.865Z,100.00
2022-10-18T23:21:28.084Z,100.00
2022-10-18T23:23:56.764Z,100.00
2022-10-18T23:26:27.353Z,100.00
2022-10-18T23:28:55.988Z,100.00
2022-10-18T23:31:31.127Z,100.00
2022-10-18T23:34:01.940Z,100.00
2022-10-18T23:36:30.243Z,100.00
2022-10-18T23:38:58.569Z,100.00
2022-10-18T23:41:26.636Z,100.00
2022-10-18T23:43:54.827Z,100.00
2022-10-18T23:46:22.898Z,100.00
2022-10-18T23:48:51.158Z,100.00
2022-10-18T23:51:18.847Z,100.00
2022-10-18T23:53:46.962Z,100.00
2022-10-18T23:56:16.441Z,100.00
2022-10-18T23:58:44.867Z,100.00
